sensor_id;sensor_type;location;lat;lon;timestamp;P1;durP1;ratioP1;P2;durP2;ratioP2
15381;SDS011;7789;51.364;12.358;2023-04-28T00:01:07;6.97;;;3.13;;
15381;SDS011;7789;51.364;12.358;2023-04-28T00:06:10;4.57;;;3.20;;
15381;SDS011;7789;51.364;12.358;2023-04-28T00:11:14;5.70;;;3.13;;
15381;SDS011;7789;51.364;12.358;2023-04-28T00:16:19;7.07;;;3.47;;
15381;SDS011;7789;51.364;12.358;2023-04-28T00:21:24;5.90;;;2.97;;
15381;SDS011;7789;51.364;12.358;2023-04-28T00:26:29;5.17;;;3.40;;
15381;SDS011;7789;51.364;12.358;2023-04-28T00:31:34;4.73;;;3.60;;
15381;SDS011;7789;51.364;12.358;2023-04-28T00:36:38;3.93;;;3.53;;
15381;SDS011;7789;51.364;12.358;2023-04-28T00:41:42;7.30;;;3.83;;
15381;SDS011;7789;51.364;12.358;2023-04-28T00:46:48;5.93;;;3.30;;
15381;SDS011;7789;51.364;12.358;2023-04-28T00:51:52;8.73;;;3.83;;
15381;SDS011;7789;51.364;12.358;2023-04-28T00:56:56;6.17;;;3.60;;
15381;SDS011;7789;51.364;12.358;2023-04-28T01:02:03;5.43;;;3.43;;
15381;SDS011;7789;51.364;12.358;2023-04-28T01:07:08;7.10;;;3.80;;
15381;SDS011;7789;51.364;12.358;2023-04-28T01:12:14;8.07;;;4.20;;
15381;SDS011;7789;51.364;12.358;2023-04-28T01:17:19;7.57;;;4.77;;
15381;SDS011;7789;51.364;12.358;2023-04-28T01:22:23;8.37;;;3.80;;
15381;SDS011;7789;51.364;12.358;2023-04-28T01:27:28;5.70;;;4.03;;
15381;SDS011;7789;51.364;12.358;2023-04-28T01:32:37;6.73;;;4.27;;
15381;SDS011;7789;51.364;12.358;2023-04-28T01:37:41;6.27;;;3.97;;
15381;SDS011;7789;51.364;12.358;2023-04-28T01:42:46;8.10;;;4.33;;
15381;SDS011;7789;51.364;12.358;2023-04-28T01:47:50;5.77;;;4.17;;
15381;SDS011;7789;51.364;12.358;2023-04-28T01:52:53;6.20;;;3.80;;
15381;SDS011;7789;51.364;12.358;2023-04-28T01:58:00;6.30;;;4.07;;
15381;SDS011;7789;51.364;12.358;2023-04-28T02:03:04;6.67;;;4.33;;
15381;SDS011;7789;51.364;12.358;2023-04-28T02:08:08;7.40;;;4.67;;
15381;SDS011;7789;51.364;12.358;2023-04-28T02:13:14;5.20;;;4.40;;
15381;SDS011;7789;51.364;12.358;2023-04-28T02:18:19;7.10;;;4.50;;
15381;SDS011;7789;51.364;12.358;2023-04-28T02:23:23;7.03;;;4.70;;
15381;SDS011;7789;51.364;12.358;2023-04-28T02:28:28;9.73;;;4.73;;
15381;SDS011;7789;51.364;12.358;2023-04-28T02:33:31;8.13;;;4.60;;
15381;SDS011;7789;51.364;12.358;2023-04-28T02:38:35;12.33;;;5.30;;
15381;SDS011;7789;51.364;12.358;2023-04-28T02:43:41;12.37;;;5.07;;
15381;SDS011;7789;51.364;12.358;2023-04-28T02:48:44;9.80;;;5.10;;
15381;SDS011;7789;51.364;12.358;2023-04-28T02:53:48;8.23;;;5.30;;
15381;SDS011;7789;51.364;12.358;2023-04-28T02:58:53;10.40;;;5.50;;
15381;SDS011;7789;51.364;12.358;2023-04-28T03:03:57;7.80;;;5.90;;
15381;SDS011;7789;51.364;12.358;2023-04-28T03:09:01;6.50;;;5.40;;
15381;SDS011;7789;51.364;12.358;2023-04-28T03:14:06;8.57;;;5.37;;
15381;SDS011;7789;51.364;12.358;2023-04-28T03:19:10;7.80;;;5.73;;
15381;SDS011;7789;51.364;12.358;2023-04-28T03:24:14;10.07;;;6.07;;
15381;SDS011;7789;51.364;12.358;2023-04-28T03:29:19;8.80;;;5.70;;
15381;SDS011;7789;51.364;12.358;2023-04-28T03:34:26;9.87;;;5.67;;
15381;SDS011;7789;51.364;12.358;2023-04-28T03:39:29;7.93;;;6.10;;
15381;SDS011;7789;51.364;12.358;2023-04-28T03:44:36;9.60;;;5.97;;
15381;SDS011;7789;51.364;12.358;2023-04-28T03:49:40;10.40;;;6.20;;
15381;SDS011;7789;51.364;12.358;2023-04-28T03:54:44;7.30;;;5.97;;
15381;SDS011;7789;51.364;12.358;2023-04-28T03:59:49;9.57;;;6.70;;
15381;SDS011;7789;51.364;12.358;2023-04-28T04:04:53;8.53;;;7.03;;
15381;SDS011;7789;51.364;12.358;2023-04-28T04:09:58;11.00;;;6.50;;
15381;SDS011;7789;51.364;12.358;2023-04-28T04:15:07;8.97;;;6.77;;
15381;SDS011;7789;51.364;12.358;2023-04-28T04:20:11;7.60;;;6.33;;
15381;SDS011;7789;51.364;12.358;2023-04-28T04:25:18;9.30;;;6.27;;
15381;SDS011;7789;51.364;12.358;2023-04-28T04:30:25;10.47;;;6.13;;
15381;SDS011;7789;51.364;12.358;2023-04-28T04:35:29;14.00;;;6.40;;
15381;SDS011;7789;51.364;12.358;2023-04-28T04:40:34;7.90;;;6.50;;
15381;SDS011;7789;51.364;12.358;2023-04-28T04:45:40;9.87;;;6.53;;
15381;SDS011;7789;51.364;12.358;2023-04-28T04:50:44;11.07;;;7.23;;
15381;SDS011;7789;51.364;12.358;2023-04-28T04:55:47;10.33;;;6.57;;
15381;SDS011;7789;51.364;12.358;2023-04-28T05:00:54;8.67;;;6.57;;
15381;SDS011;7789;51.364;12.358;2023-04-28T05:05:58;9.73;;;6.33;;
15381;SDS011;7789;51.364;12.358;2023-04-28T05:11:07;8.67;;;6.20;;
15381;SDS011;7789;51.364;12.358;2023-04-28T05:16:15;10.17;;;6.73;;
15381;SDS011;7789;51.364;12.358;2023-04-28T05:21:27;8.93;;;6.93;;
15381;SDS011;7789;51.364;12.358;2023-04-28T05:26:34;8.40;;;7.13;;
15381;SDS011;7789;51.364;12.358;2023-04-28T05:31:39;11.10;;;6.97;;
15381;SDS011;7789;51.364;12.358;2023-04-28T05:36:56;10.57;;;6.27;;
15381;SDS011;7789;51.364;12.358;2023-04-28T05:42:03;9.97;;;6.87;;
15381;SDS011;7789;51.364;12.358;2023-04-28T05:47:09;9.50;;;6.53;;
15381;SDS011;7789;51.364;12.358;2023-04-28T05:52:16;6.83;;;6.13;;
15381;SDS011;7789;51.364;12.358;2023-04-28T05:57:21;11.77;;;6.60;;
15381;SDS011;7789;51.364;12.358;2023-04-28T06:02:30;8.30;;;6.53;;
15381;SDS011;7789;51.364;12.358;2023-04-28T06:07:34;7.57;;;5.67;;
15381;SDS011;7789;51.364;12.358;2023-04-28T06:12:38;9.52;;;6.07;;
15381;SDS011;7789;51.364;12.358;2023-04-28T06:17:42;7.88;;;6.05;;
15381;SDS011;7789;51.364;12.358;2023-04-28T06:22:46;7.85;;;5.80;;
15381;SDS011;7789;51.364;12.358;2023-04-28T06:27:49;9.45;;;5.57;;
15381;SDS011;7789;51.364;12.358;2023-04-28T06:32:56;9.80;;;5.60;;
15381;SDS011;7789;51.364;12.358;2023-04-28T06:38:01;10.20;;;6.20;;
15381;SDS011;7789;51.364;12.358;2023-04-28T06:43:05;9.18;;;6.13;;
15381;SDS011;7789;51.364;12.358;2023-04-28T06:48:10;11.13;;;5.97;;
15381;SDS011;7789;51.364;12.358;2023-04-28T06:53:16;11.82;;;6.30;;
15381;SDS011;7789;51.364;12.358;2023-04-28T06:58:23;9.13;;;5.72;;
15381;SDS011;7789;51.364;12.358;2023-04-28T07:03:29;9.35;;;5.72;;
15381;SDS011;7789;51.364;12.358;2023-04-28T07:08:36;12.48;;;5.93;;
15381;SDS011;7789;51.364;12.358;2023-04-28T07:13:39;11.80;;;6.10;;
15381;SDS011;7789;51.364;12.358;2023-04-28T07:18:44;9.00;;;5.55;;
15381;SDS011;7789;51.364;12.358;2023-04-28T07:23:48;12.20;;;5.60;;
15381;SDS011;7789;51.364;12.358;2023-04-28T07:28:52;10.00;;;5.68;;
15381;SDS011;7789;51.364;12.358;2023-04-28T07:34:09;8.65;;;5.35;;
15381;SDS011;7789;51.364;12.358;2023-04-28T07:39:13;11.77;;;5.80;;
15381;SDS011;7789;51.364;12.358;2023-04-28T07:44:17;11.52;;;6.20;;
15381;SDS011;7789;51.364;12.358;2023-04-28T07:49:23;8.50;;;5.20;;
15381;SDS011;7789;51.364;12.358;2023-04-28T07:54:26;10.85;;;5.43;;
15381;SDS011;7789;51.364;12.358;2023-04-28T07:59:30;11.60;;;5.38;;
15381;SDS011;7789;51.364;12.358;2023-04-28T08:04:36;8.75;;;5.18;;
15381;SDS011;7789;51.364;12.358;2023-04-28T08:09:40;7.03;;;4.68;;
15381;SDS011;7789;51.364;12.358;2023-04-28T08:14:47;8.80;;;5.10;;
15381;SDS011;7789;51.364;12.358;2023-04-28T08:19:52;10.25;;;5.25;;
15381;SDS011;7789;51.364;12.358;2023-04-28T08:24:56;6.35;;;4.60;;
15381;SDS011;7789;51.364;12.358;2023-04-28T08:30:00;7.57;;;4.57;;
15381;SDS011;7789;51.364;12.358;2023-04-28T08:35:08;10.77;;;4.50;;
15381;SDS011;7789;51.364;12.358;2023-04-28T08:40:12;11.75;;;4.68;;
15381;SDS011;7789;51.364;12.358;2023-04-28T08:45:16;7.03;;;4.22;;
15381;SDS011;7789;51.364;12.358;2023-04-28T08:50:21;7.35;;;4.13;;
15381;SDS011;7789;51.364;12.358;2023-04-28T08:55:25;9.75;;;3.63;;
15381;SDS011;7789;51.364;12.358;2023-04-28T09:00:30;7.57;;;3.72;;
15381;SDS011;7789;51.364;12.358;2023-04-28T09:05:35;6.03;;;4.10;;
15381;SDS011;7789;51.364;12.358;2023-04-28T09:10:38;8.23;;;4.80;;
15381;SDS011;7789;51.364;12.358;2023-04-28T09:15:43;8.35;;;4.43;;
15381;SDS011;7789;51.364;12.358;2023-04-28T09:20:48;5.07;;;3.80;;
15381;SDS011;7789;51.364;12.358;2023-04-28T09:25:56;10.15;;;5.20;;
15381;SDS011;7789;51.364;12.358;2023-04-28T09:31:01;6.80;;;4.60;;
15381;SDS011;7789;51.364;12.358;2023-04-28T09:36:07;8.20;;;4.90;;
15381;SDS011;7789;51.364;12.358;2023-04-28T09:41:11;6.75;;;4.43;;
15381;SDS011;7789;51.364;12.358;2023-04-28T09:46:15;9.57;;;5.40;;
15381;SDS011;7789;51.364;12.358;2023-04-28T09:51:32;8.80;;;4.30;;
15381;SDS011;7789;51.364;12.358;2023-04-28T09:56:36;11.13;;;5.18;;
15381;SDS011;7789;51.364;12.358;2023-04-28T10:01:42;7.95;;;5.65;;
15381;SDS011;7789;51.364;12.358;2023-04-28T10:06:48;8.68;;;5.82;;
15381;SDS011;7789;51.364;12.358;2023-04-28T10:11:52;12.13;;;5.78;;
15381;SDS011;7789;51.364;12.358;2023-04-28T10:16:56;8.20;;;4.80;;
15381;SDS011;7789;51.364;12.358;2023-04-28T10:22:05;6.50;;;5.57;;
15381;SDS011;7789;51.364;12.358;2023-04-28T10:27:26;9.02;;;5.15;;
15381;SDS011;7789;51.364;12.358;2023-04-28T10:32:32;8.43;;;5.45;;
15381;SDS011;7789;51.364;12.358;2023-04-28T10:43:11;9.05;;;5.47;;
15381;SDS011;7789;51.364;12.358;2023-04-28T10:48:15;9.77;;;5.85;;
15381;SDS011;7789;51.364;12.358;2023-04-28T10:53:20;9.43;;;5.63;;
15381;SDS011;7789;51.364;12.358;2023-04-28T10:58:30;9.88;;;5.97;;
15381;SDS011;7789;51.364;12.358;2023-04-28T11:03:47;8.15;;;6.22;;
15381;SDS011;7789;51.364;12.358;2023-04-28T11:08:54;9.10;;;6.25;;
15381;SDS011;7789;51.364;12.358;2023-04-28T11:19:33;7.40;;;5.28;;
15381;SDS011;7789;51.364;12.358;2023-04-28T11:24:40;7.80;;;5.55;;
15381;SDS011;7789;51.364;12.358;2023-04-28T11:29:57;6.95;;;5.40;;
15381;SDS011;7789;51.364;12.358;2023-04-28T11:35:04;8.85;;;5.47;;
15381;SDS011;7789;51.364;12.358;2023-04-28T11:40:13;6.35;;;5.25;;
15381;SDS011;7789;51.364;12.358;2023-04-28T11:45:19;8.15;;;5.20;;
15381;SDS011;7789;51.364;12.358;2023-04-28T11:50:34;5.97;;;4.97;;
15381;SDS011;7789;51.364;12.358;2023-04-28T11:55:39;7.03;;;5.45;;
15381;SDS011;7789;51.364;12.358;2023-04-28T12:00:43;6.15;;;5.20;;
15381;SDS011;7789;51.364;12.358;2023-04-28T12:05:48;7.57;;;5.40;;
15381;SDS011;7789;51.364;12.358;2023-04-28T12:16:35;8.30;;;4.75;;
15381;SDS011;7789;51.364;12.358;2023-04-28T12:21:40;8.45;;;4.90;;
15381;SDS011;7789;51.364;12.358;2023-04-28T12:26:44;9.20;;;5.00;;
15381;SDS011;7789;51.364;12.358;2023-04-28T12:31:50;6.07;;;4.70;;
15381;SDS011;7789;51.364;12.358;2023-04-28T12:36:54;7.13;;;4.60;;
15381;SDS011;7789;51.364;12.358;2023-04-28T12:41:58;7.82;;;4.35;;
15381;SDS011;7789;51.364;12.358;2023-04-28T12:47:05;6.13;;;4.18;;
15381;SDS011;7789;51.364;12.358;2023-04-28T12:52:09;6.60;;;5.05;;
15381;SDS011;7789;51.364;12.358;2023-04-28T12:57:13;5.90;;;4.82;;
15381;SDS011;7789;51.364;12.358;2023-04-28T13:02:18;6.40;;;4.70;;
15381;SDS011;7789;51.364;12.358;2023-04-28T13:07:22;8.80;;;4.60;;
15381;SDS011;7789;51.364;12.358;2023-04-28T13:12:27;8.93;;;5.00;;
15381;SDS011;7789;51.364;12.358;2023-04-28T13:17:32;5.57;;;4.85;;
15381;SDS011;7789;51.364;12.358;2023-04-28T13:22:35;6.57;;;4.90;;
15381;SDS011;7789;51.364;12.358;2023-04-28T13:27:39;5.03;;;4.28;;
15381;SDS011;7789;51.364;12.358;2023-04-28T13:32:45;4.82;;;4.35;;
15381;SDS011;7789;51.364;12.358;2023-04-28T13:37:49;5.88;;;4.43;;
15381;SDS011;7789;51.364;12.358;2023-04-28T13:42:57;5.45;;;4.63;;
15381;SDS011;7789;51.364;12.358;2023-04-28T13:48:02;5.25;;;4.13;;
15381;SDS011;7789;51.364;12.358;2023-04-28T13:53:06;5.10;;;3.78;;
15381;SDS011;7789;51.364;12.358;2023-04-28T13:58:09;6.05;;;3.40;;
15381;SDS011;7789;51.364;12.358;2023-04-28T14:03:14;3.50;;;3.20;;
15381;SDS011;7789;51.364;12.358;2023-04-28T14:08:18;4.35;;;3.20;;
15381;SDS011;7789;51.364;12.358;2023-04-28T14:13:23;4.30;;;3.25;;
15381;SDS011;7789;51.364;12.358;2023-04-28T14:18:28;4.22;;;2.97;;
15381;SDS011;7789;51.364;12.358;2023-04-28T14:23:34;5.30;;;3.00;;
15381;SDS011;7789;51.364;12.358;2023-04-28T14:28:38;8.85;;;3.20;;
15381;SDS011;7789;51.364;12.358;2023-04-28T14:33:46;7.22;;;4.25;;
15381;SDS011;7789;51.364;12.358;2023-04-28T14:38:50;4.80;;;3.08;;
15381;SDS011;7789;51.364;12.358;2023-04-28T14:43:53;6.22;;;3.28;;
15381;SDS011;7789;51.364;12.358;2023-04-28T14:48:58;5.00;;;2.75;;
15381;SDS011;7789;51.364;12.358;2023-04-28T14:54:03;3.53;;;2.92;;
15381;SDS011;7789;51.364;12.358;2023-04-28T14:59:07;4.55;;;3.08;;
15381;SDS011;7789;51.364;12.358;2023-04-28T15:04:12;5.65;;;3.47;;
15381;SDS011;7789;51.364;12.358;2023-04-28T15:09:17;6.57;;;3.65;;
15381;SDS011;7789;51.364;12.358;2023-04-28T15:14:21;5.47;;;3.38;;
15381;SDS011;7789;51.364;12.358;2023-04-28T15:19:25;5.63;;;3.63;;
15381;SDS011;7789;51.364;12.358;2023-04-28T15:24:29;5.90;;;3.60;;
15381;SDS011;7789;51.364;12.358;2023-04-28T15:29:36;5.55;;;3.90;;
15381;SDS011;7789;51.364;12.358;2023-04-28T15:34:41;5.03;;;3.35;;
15381;SDS011;7789;51.364;12.358;2023-04-28T15:39:44;3.85;;;3.00;;
15381;SDS011;7789;51.364;12.358;2023-04-28T15:44:48;5.47;;;3.35;;
15381;SDS011;7789;51.364;12.358;2023-04-28T15:49:53;3.50;;;3.20;;
15381;SDS011;7789;51.364;12.358;2023-04-28T15:54:57;3.97;;;3.25;;
15381;SDS011;7789;51.364;12.358;2023-04-28T16:00:01;4.60;;;3.30;;
15381;SDS011;7789;51.364;12.358;2023-04-28T16:05:08;4.72;;;3.20;;
15381;SDS011;7789;51.364;12.358;2023-04-28T16:10:20;4.07;;;3.28;;
15381;SDS011;7789;51.364;12.358;2023-04-28T16:15:23;4.20;;;3.03;;
15381;SDS011;7789;51.364;12.358;2023-04-28T16:20:28;4.70;;;3.40;;
15381;SDS011;7789;51.364;12.358;2023-04-28T16:25:32;4.07;;;3.08;;
15381;SDS011;7789;51.364;12.358;2023-04-28T16:30:36;4.45;;;3.38;;
15381;SDS011;7789;51.364;12.358;2023-04-28T16:35:41;3.40;;;2.75;;
15381;SDS011;7789;51.364;12.358;2023-04-28T16:40:45;5.60;;;3.08;;
15381;SDS011;7789;51.364;12.358;2023-04-28T16:45:48;6.45;;;3.33;;
15381;SDS011;7789;51.364;12.358;2023-04-28T16:50:52;3.95;;;3.28;;
15381;SDS011;7789;51.364;12.358;2023-04-28T16:55:57;4.18;;;3.30;;
15381;SDS011;7789;51.364;12.358;2023-04-28T17:01:00;5.43;;;3.75;;
15381;SDS011;7789;51.364;12.358;2023-04-28T17:06:08;5.57;;;3.85;;
15381;SDS011;7789;51.364;12.358;2023-04-28T17:11:14;4.65;;;4.15;;
15381;SDS011;7789;51.364;12.358;2023-04-28T17:16:19;5.65;;;3.92;;
15381;SDS011;7789;51.364;12.358;2023-04-28T17:21:24;5.60;;;4.43;;
15381;SDS011;7789;51.364;12.358;2023-04-28T17:26:30;5.18;;;4.65;;
15381;SDS011;7789;51.364;12.358;2023-04-28T17:31:34;7.60;;;4.32;;
15381;SDS011;7789;51.364;12.358;2023-04-28T17:36:41;7.25;;;4.63;;
15381;SDS011;7789;51.364;12.358;2023-04-28T17:41:44;6.03;;;4.28;;
15381;SDS011;7789;51.364;12.358;2023-04-28T17:46:48;6.18;;;4.25;;
15381;SDS011;7789;51.364;12.358;2023-04-28T17:51:56;5.88;;;4.60;;
15381;SDS011;7789;51.364;12.358;2023-04-28T17:57:03;5.50;;;4.93;;
15381;SDS011;7789;51.364;12.358;2023-04-28T18:02:07;5.60;;;5.00;;
15381;SDS011;7789;51.364;12.358;2023-04-28T18:07:13;6.70;;;5.07;;
15381;SDS011;7789;51.364;12.358;2023-04-28T18:12:17;6.25;;;5.30;;
15381;SDS011;7789;51.364;12.358;2023-04-28T18:17:20;5.18;;;4.63;;
15381;SDS011;7789;51.364;12.358;2023-04-28T18:22:25;6.40;;;4.47;;
15381;SDS011;7789;51.364;12.358;2023-04-28T18:27:30;5.70;;;5.10;;
15381;SDS011;7789;51.364;12.358;2023-04-28T18:32:34;6.97;;;5.20;;
15381;SDS011;7789;51.364;12.358;2023-04-28T18:37:43;10.02;;;5.30;;
15381;SDS011;7789;51.364;12.358;2023-04-28T18:42:46;5.72;;;5.22;;
15381;SDS011;7789;51.364;12.358;2023-04-28T18:47:50;6.70;;;5.22;;
15381;SDS011;7789;51.364;12.358;2023-04-28T18:52:55;6.38;;;5.60;;
15381;SDS011;7789;51.364;12.358;2023-04-28T18:57:58;5.93;;;5.22;;
15381;SDS011;7789;51.364;12.358;2023-04-28T19:03:02;6.60;;;5.90;;
15381;SDS011;7789;51.364;12.358;2023-04-28T19:08:07;8.77;;;6.03;;
15381;SDS011;7789;51.364;12.358;2023-04-28T19:13:12;7.30;;;6.10;;
15381;SDS011;7789;51.364;12.358;2023-04-28T19:18:15;8.38;;;6.50;;
15381;SDS011;7789;51.364;12.358;2023-04-28T19:23:21;9.57;;;6.40;;
15381;SDS011;7789;51.364;12.358;2023-04-28T19:28:24;7.32;;;6.18;;
15381;SDS011;7789;51.364;12.358;2023-04-28T19:33:29;7.55;;;6.75;;
15381;SDS011;7789;51.364;12.358;2023-04-28T19:38:34;7.63;;;6.82;;
15381;SDS011;7789;51.364;12.358;2023-04-28T19:43:41;7.55;;;6.75;;
15381;SDS011;7789;51.364;12.358;2023-04-28T19:48:44;7.88;;;7.15;;
15381;SDS011;7789;51.364;12.358;2023-04-28T19:53:49;7.70;;;6.93;;
15381;SDS011;7789;51.364;12.358;2023-04-28T19:58:53;7.40;;;6.70;;
15381;SDS011;7789;51.364;12.358;2023-04-28T20:03:56;8.07;;;7.22;;
15381;SDS011;7789;51.364;12.358;2023-04-28T20:09:02;8.10;;;7.30;;
15381;SDS011;7789;51.364;12.358;2023-04-28T20:14:06;7.40;;;6.68;;
15381;SDS011;7789;51.364;12.358;2023-04-28T20:19:10;8.82;;;7.20;;
15381;SDS011;7789;51.364;12.358;2023-04-28T20:24:14;8.80;;;7.90;;
15381;SDS011;7789;51.364;12.358;2023-04-28T20:29:17;8.10;;;7.30;;
15381;SDS011;7789;51.364;12.358;2023-04-28T20:34:21;8.52;;;7.68;;
15381;SDS011;7789;51.364;12.358;2023-04-28T20:39:25;9.60;;;7.93;;
15381;SDS011;7789;51.364;12.358;2023-04-28T20:44:29;9.73;;;8.80;;
15381;SDS011;7789;51.364;12.358;2023-04-28T20:49:33;10.63;;;9.02;;
15381;SDS011;7789;51.364;12.358;2023-04-28T20:54:38;10.15;;;9.15;;
15381;SDS011;7789;51.364;12.358;2023-04-28T20:59:44;10.18;;;9.18;;
15381;SDS011;7789;51.364;12.358;2023-04-28T21:04:47;10.30;;;9.30;;
15381;SDS011;7789;51.364;12.358;2023-04-28T21:09:52;10.30;;;9.30;;
15381;SDS011;7789;51.364;12.358;2023-04-28T21:14:55;11.73;;;9.32;;
15381;SDS011;7789;51.364;12.358;2023-04-28T21:20:00;9.98;;;8.98;;
15381;SDS011;7789;51.364;12.358;2023-04-28T21:25:06;10.50;;;9.50;;
15381;SDS011;7789;51.364;12.358;2023-04-28T21:30:10;11.73;;;10.48;;
15381;SDS011;7789;51.364;12.358;2023-04-28T21:35:15;10.32;;;9.32;;
15381;SDS011;7789;51.364;12.358;2023-04-28T21:40:20;9.82;;;8.25;;
15381;SDS011;7789;51.364;12.358;2023-04-28T21:45:23;10.18;;;9.18;;
15381;SDS011;7789;51.364;12.358;2023-04-28T21:50:27;10.23;;;9.25;;
15381;SDS011;7789;51.364;12.358;2023-04-28T21:55:31;10.77;;;8.98;;
15381;SDS011;7789;51.364;12.358;2023-04-28T22:00:36;10.23;;;9.23;;
15381;SDS011;7789;51.364;12.358;2023-04-28T22:05:41;9.93;;;8.70;;
15381;SDS011;7789;51.364;12.358;2023-04-28T22:10:47;10.65;;;9.35;;
15381;SDS011;7789;51.364;12.358;2023-04-28T22:15:50;10.32;;;9.40;;
15381;SDS011;7789;51.364;12.358;2023-04-28T22:20:54;10.05;;;9.00;;
15381;SDS011;7789;51.364;12.358;2023-04-28T22:25:58;11.32;;;10.23;;
15381;SDS011;7789;51.364;12.358;2023-04-28T22:31:02;10.80;;;9.60;;
15381;SDS011;7789;51.364;12.358;2023-04-28T22:36:05;12.07;;;10.88;;
15381;SDS011;7789;51.364;12.358;2023-04-28T22:41:10;13.95;;;11.35;;
15381;SDS011;7789;51.364;12.358;2023-04-28T22:46:13;13.27;;;10.50;;
15381;SDS011;7789;51.364;12.358;2023-04-28T22:51:17;12.90;;;9.98;;
15381;SDS011;7789;51.364;12.358;2023-04-28T22:56:22;11.93;;;9.55;;
15381;SDS011;7789;51.364;12.358;2023-04-28T23:01:25;11.55;;;9.98;;
15381;SDS011;7789;51.364;12.358;2023-04-28T23:06:28;11.37;;;9.70;;
15381;SDS011;7789;51.364;12.358;2023-04-28T23:11:33;9.85;;;8.85;;
15381;SDS011;7789;51.364;12.358;2023-04-28T23:16:37;10.95;;;9.70;;
15381;SDS011;7789;51.364;12.358;2023-04-28T23:21:40;11.15;;;10.05;;
15381;SDS011;7789;51.364;12.358;2023-04-28T23:26:45;10.00;;;9.00;;
15381;SDS011;7789;51.364;12.358;2023-04-28T23:31:48;9.85;;;8.93;;
15381;SDS011;7789;51.364;12.358;2023-04-28T23:36:55;10.60;;;9.50;;
15381;SDS011;7789;51.364;12.358;2023-04-28T23:42:00;11.90;;;10.45;;
15381;SDS011;7789;51.364;12.358;2023-04-28T23:47:03;10.37;;;9.13;;
15381;SDS011;7789;51.364;12.358;2023-04-28T23:52:07;11.50;;;10.32;;
15381;SDS011;7789;51.364;12.358;2023-04-28T23:57:11;11.48;;;10.27;;
